Time;durP1;ratioP1;P1;durP2;ratioP2;P2;SDS_P1;SDS_P2;PMS_P1;PMS_P2;Temp;Humidity;BMP_temperature;BMP_pressure;BME280_temperature;BME280_humidity;BME280_pressure;Samples;Min_cycle;Max_cycle;Signal;HPM_P1;HPM_P2
2022/07/12 00:01:35;;;;;;;2.95;1.38;;;;;;;10.48;100.00;101475.44;4907621;29;20706;-78
2022/07/12 00:04:02;;;;;;;1.55;1.20;;;;;;;10.42;100.00;101468.44;4916823;29;20050;-78
2022/07/12 00:06:29;;;;;;;2.78;1.55;;;;;;;10.39;100.00;101475.50;4925067;29;20068;-78
2022/07/12 00:08:56;;;;;;;1.70;1.17;;;;;;;10.31;100.00;101475.53;4911531;29;20082;-78
2022/07/12 00:11:23;;;;;;;2.00;1.20;;;;;;;10.29;100.00;101476.44;4911369;29;20047;-78
2022/07/12 00:13:50;;;;;;;3.05;1.30;;;;;;;10.25;100.00;101477.34;4911647;29;20583;-78
2022/07/12 00:16:17;;;;;;;1.75;1.25;;;;;;;10.20;100.00;101476.47;4912528;29;20046;-79
2022/07/12 00:18:44;;;;;;;2.60;1.45;;;;;;;10.15;100.00;101480.00;4930159;29;20091;-78
2022/07/12 00:21:10;;;;;;;1.85;1.40;;;;;;;10.12;100.00;101485.31;4895087;29;20050;-78
2022/07/12 00:23:37;;;;;;;2.17;1.42;;;;;;;10.10;100.00;101481.81;4928797;29;20043;-78
2022/07/12 00:26:04;;;;;;;2.83;1.48;;;;;;;10.09;100.00;101487.09;4927915;29;20040;-78
2022/07/12 00:28:31;;;;;;;2.60;1.55;;;;;;;10.04;100.00;101492.41;4924354;29;20042;-78
2022/07/12 00:30:58;;;;;;;2.25;1.45;;;;;;;10.03;100.00;101488.00;4909303;29;20473;-78
2022/07/12 00:33:26;;;;;;;2.42;1.60;;;;;;;10.03;100.00;101488.00;4927036;29;20143;-78
2022/07/12 00:35:52;;;;;;;2.75;1.80;;;;;;;10.00;100.00;101487.13;4908755;29;20050;-78
2022/07/12 00:38:19;;;;;;;3.40;1.70;;;;;;;9.98;100.00;101486.25;4924796;29;20684;-78
2022/07/12 00:40:46;;;;;;;2.30;2.10;;;;;;;9.94;100.00;101488.06;4879583;29;20060;-78
2022/07/12 00:43:12;;;;;;;1.92;1.50;;;;;;;9.86;100.00;101482.81;4912905;29;20485;-78
2022/07/12 00:45:39;;;;;;;2.00;1.48;;;;;;;9.81;100.00;101487.22;4929225;29;20044;-78
2022/07/12 00:48:06;;;;;;;2.63;1.63;;;;;;;9.74;100.00;101487.25;4912408;29;20074;-81
2022/07/12 00:50:33;;;;;;;2.13;1.60;;;;;;;9.69;100.00;101489.03;4908440;29;20044;-78
2022/07/12 00:53:00;;;;;;;2.15;1.73;;;;;;;9.64;100.00;101490.78;4922636;29;20043;-77
2022/07/12 00:55:27;;;;;;;2.00;1.42;;;;;;;9.58;100.00;101478.50;4908165;29;20166;-78
2022/07/12 00:57:53;;;;;;;2.55;1.45;;;;;;;9.56;100.00;101485.53;4897636;29;20497;-78
2022/07/12 01:00:23;;;;;;;1.65;1.33;;;;;;;9.55;100.00;101486.44;4895519;29;20044;-78
2022/07/12 01:02:52;;;;;;;2.13;1.58;;;;;;;9.59;100.00;101489.06;4939880;28;20110;-78
2022/07/12 01:05:19;;;;;;;2.85;1.52;;;;;;;9.55;100.00;101491.72;4896729;29;20043;-77
2022/07/12 01:07:46;;;;;;;2.10;1.70;;;;;;;9.46;100.00;101489.97;4928673;29;20144;-77
2022/07/12 01:10:13;;;;;;;1.98;1.63;;;;;;;9.40;100.00;101482.06;4908994;29;20040;-77
2022/07/12 01:12:40;;;;;;;3.53;1.50;;;;;;;9.36;100.00;101490.88;4938153;28;20048;-77
2022/07/12 01:15:07;;;;;;;3.97;2.25;;;;;;;9.32;100.00;101497.03;4912931;29;20044;-77
2022/07/12 01:17:34;;;;;;;2.33;1.63;;;;;;;9.26;100.00;101494.44;4929715;29;20040;-78
2022/07/12 01:20:02;;;;;;;2.17;1.25;;;;;;;9.25;100.00;101490.03;4914820;29;20059;-78
2022/07/12 01:22:31;;;;;;;2.35;1.40;;;;;;;9.24;100.00;101490.88;4930822;29;20051;-78
2022/07/12 01:24:59;;;;;;;2.58;1.60;;;;;;;9.27;100.00;101490.91;5032652;23;20681;-82
2022/07/12 01:27:27;;;;;;;2.40;1.48;;;;;;;9.25;100.00;101485.63;4939459;28;20049;-81
2022/07/12 01:29:55;;;;;;;2.88;1.63;;;;;;;9.22;100.00;101495.28;4956422;28;20042;-81
2022/07/12 01:32:25;;;;;;;2.20;1.65;;;;;;;9.20;100.00;101497.06;4959349;28;20364;-82
2022/07/12 01:34:58;;;;;;;1.80;1.55;;;;;;;9.18;100.00;101499.72;4959243;28;20491;-82
2022/07/12 01:37:29;;;;;;;3.08;1.92;;;;;;;9.16;100.00;101506.72;4974717;28;20042;-82
2022/07/12 01:39:57;;;;;;;2.08;1.45;;;;;;;9.11;100.00;101500.59;4971642;28;20759;-82
2022/07/12 01:42:25;;;;;;;2.40;1.83;;;;;;;9.11;100.00;101502.34;4971853;28;20101;-82
2022/07/12 01:44:53;;;;;;;2.92;1.67;;;;;;;9.05;100.00;101495.31;4968936;28;20798;-82
2022/07/12 01:47:23;;;;;;;1.77;1.50;;;;;;;9.01;100.00;101505.00;4972091;28;20034;-82
2022/07/12 01:49:49;;;;;;;1.80;1.50;;;;;;;9.00;100.00;101499.72;4970893;28;20093;-82
2022/07/12 01:52:17;;;;;;;2.35;1.58;;;;;;;8.97;100.00;101497.94;4957166;28;20141;-82
2022/07/12 01:54:44;;;;;;;2.08;1.70;;;;;;;8.93;100.00;101495.34;4939437;28;20044;-82
2022/07/12 01:57:10;;;;;;;2.45;1.50;;;;;;;8.94;100.00;101503.25;4958692;28;20593;-82
2022/07/12 01:59:38;;;;;;;1.88;1.50;;;;;;;8.91;100.00;101500.63;4976674;28;20042;-82
2022/07/12 02:02:04;;;;;;;1.50;1.40;;;;;;;8.88;100.00;101497.09;4948906;28;20050;-82
2022/07/12 02:04:31;;;;;;;1.80;1.50;;;;;;;8.86;100.00;101505.00;4959176;28;20042;-82
2022/07/12 02:06:58;;;;;;;2.00;1.65;;;;;;;8.86;100.00;101496.22;4974341;28;20080;-82
2022/07/12 02:09:25;;;;;;;1.58;1.48;;;;;;;8.81;100.00;101487.41;4975262;28;20050;-82
2022/07/12 02:11:53;;;;;;;1.83;1.70;;;;;;;8.80;100.00;101497.06;4942292;28;20050;-82
2022/07/12 02:14:20;;;;;;;2.47;1.70;;;;;;;8.78;100.00;101498.84;4959824;28;20108;-82
2022/07/12 02:16:47;;;;;;;2.00;1.60;;;;;;;8.74;100.00;101500.63;4960713;28;20042;-82
2022/07/12 02:19:14;;;;;;;1.92;1.58;;;;;;;8.72;100.00;101502.34;4955960;28;20035;-82
2022/07/12 02:21:41;;;;;;;1.65;1.30;;;;;;;8.70;100.00;101513.78;4965471;28;20045;-82
2022/07/12 02:24:07;;;;;;;2.65;1.65;;;;;;;8.68;100.00;101511.13;4941842;28;20038;-82
2022/07/12 02:26:37;;;;;;;2.10;1.50;;;;;;;8.65;100.00;101507.59;4956630;28;20579;-82
2022/07/12 02:29:05;;;;;;;2.07;1.60;;;;;;;8.64;100.00;101501.47;4969825;28;20047;-82
2022/07/12 02:31:32;;;;;;;2.22;1.55;;;;;;;8.63;100.00;101506.72;4978890;28;20042;-82
2022/07/12 02:33:59;;;;;;;2.53;1.83;;;;;;;8.57;100.00;101504.97;4957819;28;20129;-80
2022/07/12 02:36:26;;;;;;;2.63;1.70;;;;;;;8.61;100.00;101503.22;4983814;28;20093;-81
2022/07/12 02:38:52;;;;;;;3.58;1.88;;;;;;;8.70;100.00;101503.22;4943211;28;20046;-82
2022/07/12 02:41:19;;;;;;;4.55;1.90;;;;;;;8.67;100.00;101500.59;4960073;28;20054;-81
2022/07/12 02:43:46;;;;;;;2.10;1.70;;;;;;;8.59;100.00;101500.59;4960652;28;20559;-81
2022/07/12 02:46:16;;;;;;;2.67;1.77;;;;;;;8.54;100.00;101502.34;4966779;28;20047;-80
2022/07/12 02:48:43;;;;;;;2.08;1.55;;;;;;;8.52;100.00;101505.84;4968141;28;20034;-81
2022/07/12 02:51:10;;;;;;;2.15;1.65;;;;;;;8.47;100.00;101508.47;4956339;28;20042;-81
2022/07/12 02:53:37;;;;;;;2.55;1.85;;;;;;;8.43;100.00;101504.09;4973841;28;20126;-80
2022/07/12 02:56:08;;;;;;;1.80;1.55;;;;;;;8.40;100.00;101512.84;4953596;28;20649;-81
2022/07/12 02:58:36;;;;;;;3.15;1.60;;;;;;;8.35;100.00;101519.88;4941579;28;20046;-82
2022/07/12 03:01:03;;;;;;;3.13;1.70;;;;;;;8.32;100.00;101521.56;4951925;28;20133;-82
2022/07/12 03:03:30;;;;;;;2.53;1.80;;;;;;;8.32;100.00;101521.56;4968164;28;20614;-81
2022/07/12 03:05:58;;;;;;;3.27;1.87;;;;;;;8.30;100.00;101518.03;4958824;28;20050;-82
2022/07/12 03:08:24;;;;;;;5.33;1.60;;;;;;;8.38;100.00;101516.34;4940690;28;20050;-81
2022/07/12 03:10:51;;;;;;;2.07;1.83;;;;;;;8.35;100.00;101519.88;4945105;28;20049;-81
2022/07/12 03:13:18;;;;;;;2.40;1.60;;;;;;;8.36;100.00;101528.63;4957940;28;20818;-79
2022/07/12 03:15:49;;;;;;;3.92;1.80;;;;;;;8.32;100.00;101532.97;4941993;28;20078;-80
2022/07/12 03:18:17;;;;;;;3.67;1.67;;;;;;;8.31;100.00;101539.09;4958872;28;20061;-81
2022/07/12 03:20:44;;;;;;;2.30;1.50;;;;;;;8.30;100.00;101540.00;4973613;28;20128;-80
2022/07/12 03:23:11;;;;;;;3.13;1.70;;;;;;;8.43;100.00;101544.47;4973533;28;20479;-81
2022/07/12 03:25:37;;;;;;;2.97;1.90;;;;;;;8.38;100.00;101537.41;4938778;28;20557;-81
2022/07/12 03:28:04;;;;;;;3.17;1.60;;;;;;;8.44;100.00;101535.69;4969851;28;20428;-81
2022/07/12 03:30:31;;;;;;;1.70;1.50;;;;;;;8.42;100.00;101539.19;4957310;28;20069;-81
2022/07/12 03:32:59;;;;;;;2.37;1.80;;;;;;;8.40;100.00;101543.56;4973998;28;20048;-81
2022/07/12 03:35:25;;;;;;;1.90;1.50;;;;;;;8.42;100.00;101531.28;4958164;28;20046;-82
2022/07/12 03:37:53;;;;;;;2.10;1.50;;;;;;;8.42;100.00;101536.56;4972731;28;20035;-82
2022/07/12 03:40:21;;;;;;;2.30;1.50;;;;;;;8.43;100.00;101540.94;4971641;28;20493;-82
2022/07/12 03:42:52;;;;;;;2.40;1.77;;;;;;;8.44;100.00;101537.44;4971679;28;20585;-82
2022/07/12 03:45:19;;;;;;;2.60;1.70;;;;;;;8.51;100.00;101540.97;4970096;28;20046;-81
2022/07/12 03:47:48;;;;;;;2.42;1.80;;;;;;;8.46;100.00;101543.56;4979527;28;20046;-82
2022/07/12 03:50:14;;;;;;;2.17;1.60;;;;;;;8.53;100.00;101553.25;4985592;28;20130;-83
2022/07/12 03:52:42;;;;;;;2.20;1.60;;;;;;;8.45;100.00;101549.72;4958534;28;20097;-82
2022/07/12 03:55:10;;;;;;;2.23;1.70;;;;;;;8.48;100.00;101554.09;4951821;28;20039;-82
2022/07/12 03:57:38;;;;;;;2.13;1.73;;;;;;;8.50;100.00;101552.38;4953560;28;20034;-82
2022/07/12 04:00:08;;;;;;;2.13;1.53;;;;;;;8.52;100.00;101548.88;4952901;28;20052;-81
2022/07/12 04:02:35;;;;;;;3.70;2.37;;;;;;;8.53;100.00;101557.66;4982090;28;20038;-82
2022/07/12 04:05:02;;;;;;;1.70;1.50;;;;;;;8.52;100.00;101561.16;4967771;28;20050;-82
2022/07/12 04:07:28;;;;;;;2.53;1.60;;;;;;;8.57;100.00;101567.28;4983099;28;20050;-82
2022/07/12 04:09:55;;;;;;;1.77;1.63;;;;;;;8.59;100.00;101562.94;4964788;28;20183;-82
2022/07/12 04:12:22;;;;;;;2.23;1.60;;;;;;;8.71;100.00;101557.66;4994849;28;20043;-81
2022/07/12 04:14:49;;;;;;;2.80;1.80;;;;;;;8.76;100.00;101553.31;4934956;28;20104;-81
2022/07/12 04:17:15;;;;;;;2.65;1.77;;;;;;;8.78;100.00;101554.16;4965689;28;20050;-81
2022/07/12 04:19:42;;;;;;;1.98;1.55;;;;;;;8.77;100.00;101555.06;4955304;28;20038;-80
2022/07/12 04:22:09;;;;;;;2.28;1.70;;;;;;;8.87;100.00;101563.84;4942239;28;20045;-80
2022/07/12 04:24:35;;;;;;;2.55;1.80;;;;;;;8.87;100.00;101556.81;4955777;28;20138;-81
2022/07/12 04:27:03;;;;;;;1.80;1.53;;;;;;;8.86;100.00;101555.06;4965462;28;20050;-81
2022/07/12 04:29:30;;;;;;;3.57;1.80;;;;;;;8.90;100.00;101553.28;4948557;28;20041;-80
2022/07/12 04:31:57;;;;;;;2.30;2.10;;;;;;;8.91;100.00;101550.69;4962087;28;20046;-81
2022/07/12 04:34:24;;;;;;;2.10;1.90;;;;;;;8.96;100.00;101546.28;4960081;28;20043;-82
2022/07/12 04:36:51;;;;;;;2.00;1.60;;;;;;;9.05;100.00;101549.78;4944302;28;20057;-82
2022/07/12 04:39:19;;;;;;;3.92;1.75;;;;;;;9.12;100.00;101557.72;4960539;28;20030;-82
2022/07/12 04:41:46;;;;;;;1.98;1.70;;;;;;;9.19;100.00;101553.31;4973055;28;20717;-81
2022/07/12 04:44:13;;;;;;;2.58;2.10;;;;;;;9.25;100.00;101550.69;4954231;28;20046;-81
2022/07/12 04:46:40;;;;;;;2.28;2.03;;;;;;;9.28;100.00;101553.31;4975357;28;20069;-82
2022/07/12 04:49:08;;;;;;;2.80;2.20;;;;;;;9.35;100.00;101557.69;4975769;28;20030;-79
2022/07/12 04:51:35;;;;;;;2.08;1.70;;;;;;;9.37;100.00;101557.69;4953156;28;20053;-79
2022/07/12 04:54:01;;;;;;;3.90;1.98;;;;;;;9.52;100.00;101549.75;4988689;28;20507;-79
2022/07/12 04:56:28;;;;;;;2.30;1.77;;;;;;;9.61;100.00;101551.50;4973247;28;20049;-80
2022/07/12 04:58:55;;;;;;;2.50;1.73;;;;;;;9.71;100.00;101542.66;4973584;28;20046;-80
2022/07/12 05:01:28;;;;;;;3.38;2.13;;;;;;;9.90;100.00;101546.13;4961184;28;20518;-80
2022/07/12 05:03:55;;;;;;;4.35;2.28;;;;;;;10.23;100.00;101542.50;4958174;28;20224;-80
2022/07/12 05:06:23;;;;;;;2.97;1.60;;;;;;;10.62;100.00;101544.03;4975527;28;20039;-80
2022/07/12 05:08:51;;;;;;;1.75;1.55;;;;;;;10.98;100.00;101556.13;4946463;28;20038;-81
2022/07/12 05:11:19;;;;;;;2.42;1.52;;;;;;;11.10;100.00;101549.84;4963993;28;20043;-80
2022/07/12 05:13:46;;;;;;;2.20;1.58;;;;;;;11.09;100.00;101556.00;4967857;28;20066;-80
2022/07/12 05:16:14;;;;;;;3.78;1.77;;;;;;;11.13;100.00;101547.19;4947899;28;20073;-79
2022/07/12 05:18:41;;;;;;;2.92;1.65;;;;;;;11.26;100.00;101549.69;4983540;28;20101;-79
2022/07/12 05:21:08;;;;;;;2.70;1.67;;;;;;;11.32;100.00;101555.81;4978033;28;20069;-82
2022/07/12 05:23:34;;;;;;;1.90;1.45;;;;;;;11.31;100.00;101554.94;4981542;28;20091;-80
2022/07/12 05:26:04;;;;;;;2.95;1.90;;;;;;;11.65;100.00;101551.97;4945738;28;20073;-85
2022/07/12 05:28:32;;;;;;;2.10;1.60;;;;;;;11.79;100.00;101550.06;4962844;28;20038;-82
2022/07/12 05:30:59;;;;;;;2.75;1.83;;;;;;;11.97;100.00;101549.00;4991915;28;20050;-80
2022/07/12 05:33:26;;;;;;;3.35;1.60;;;;;;;12.08;100.00;101563.84;4972571;28;20073;-80
2022/07/12 05:35:54;;;;;;;2.10;1.60;;;;;;;12.13;100.00;101563.81;4978971;28;20034;-83
2022/07/12 05:38:20;;;;;;;3.00;1.67;;;;;;;12.34;100.00;101560.88;4989035;28;20045;-84
2022/07/12 05:40:47;;;;;;;2.00;1.80;;;;;;;12.72;100.00;101559.47;4968824;28;20042;-81
2022/07/12 05:43:15;;;;;;;2.33;1.60;;;;;;;13.57;100.00;101559.84;4974320;28;20105;-81
2022/07/12 05:45:42;;;;;;;2.10;1.55;;;;;;;16.13;100.00;101568.88;4954158;28;20599;-82
2022/07/12 05:48:09;;;;;;;2.13;1.20;;;;;;;18.77;78.82;101556.28;4969476;28;20046;-82
2022/07/12 05:50:36;;;;;;;1.45;1.20;;;;;;;21.23;67.12;101554.03;4955319;28;20042;-82
2022/07/12 05:55:52;;;;;;;6.28;1.40;;;;;;;24.71;51.63;101550.03;4973824;28;20077;-83
2022/07/12 05:58:21;;;;;;;2.20;1.10;;;;;;;25.68;50.42;101554.34;4983749;28;20070;-81
2022/07/12 06:00:48;;;;;;;2.90;1.45;;;;;;;26.61;47.31;101566.69;4976791;28;20116;-81
2022/07/12 06:03:16;;;;;;;1.90;1.00;;;;;;;27.37;43.18;101558.22;4963297;28;20042;-81
2022/07/12 06:05:43;;;;;;;2.50;1.20;;;;;;;26.84;44.92;101557.72;4975052;28;20046;-83
2022/07/12 06:08:11;;;;;;;1.63;1.42;;;;;;;26.96;43.00;101561.34;4962377;28;20496;-83
2022/07/12 06:10:38;;;;;;;3.58;1.15;;;;;;;26.34;43.86;101559.56;4960725;28;20141;-84
2022/07/12 06:13:05;;;;;;;2.00;1.30;;;;;;;25.12;45.33;101568.06;4989516;28;20050;-83
2022/07/12 06:15:32;;;;;;;2.05;1.33;;;;;;;24.86;49.07;101558.09;4986364;28;20096;-83
2022/07/12 06:18:01;;;;;;;2.38;1.10;;;;;;;24.60;51.47;101563.38;4992807;28;20482;-84
2022/07/12 06:20:28;;;;;;;1.50;1.10;;;;;;;23.62;54.14;101555.13;4961777;28;20046;-82
2022/07/12 06:22:56;;;;;;;1.48;1.05;;;;;;;23.68;53.29;101562.00;4992708;28;20038;-84
2022/07/12 06:25:23;;;;;;;3.13;1.50;;;;;;;23.25;55.70;101559.16;4960358;28;20072;-83
2022/07/12 06:28:11;;;;;;;2.83;1.20;;;;;;;23.18;55.83;101547.84;4982391;28;20571;-83
2022/07/12 06:30:37;;;;;;;2.42;1.25;;;;;;;22.91;56.11;101553.03;4970716;28;20058;-83
2022/07/12 06:33:05;;;;;;;2.00;1.40;;;;;;;22.56;55.13;101552.34;4977508;28;20038;-86
2022/07/12 06:35:33;;;;;;;2.08;1.45;;;;;;;22.47;56.19;101550.16;4940871;28;20050;-83
2022/07/12 06:41:21;;;;;;;10.15;1.75;;;;;;;22.22;58.48;101544.41;4987248;28;20054;-85
2022/07/12 06:43:58;;;;;;;1.63;1.00;;;;;;;22.49;54.27;101548.25;4980297;28;20074;-84
2022/07/12 06:46:46;;;;;;;3.97;1.67;;;;;;;22.50;57.59;101546.41;4971413;28;20045;-84
2022/07/12 06:49:15;;;;;;;1.65;1.02;;;;;;;22.65;55.46;101542.88;4978651;28;20073;-83
2022/07/12 06:51:42;;;;;;;2.90;1.20;;;;;;;22.87;55.19;101543.41;4960765;28;20089;-84
2022/07/12 06:54:08;;;;;;;2.10;1.13;;;;;;;23.25;55.26;101535.75;5000491;28;20039;-81
2022/07/12 06:56:35;;;;;;;1.30;1.02;;;;;;;23.35;53.00;101541.47;4985387;28;20042;-81
2022/07/12 06:59:02;;;;;;;1.98;1.00;;;;;;;23.26;53.58;101537.50;4980765;28;20133;-82
2022/07/12 07:01:29;;;;;;;1.38;1.10;;;;;;;23.38;51.81;101532.34;4950762;28;20074;-81
2022/07/12 07:03:56;;;;;;;1.58;1.20;;;;;;;23.42;53.03;101539.28;4983713;28;20879;-82
2022/07/12 07:06:23;;;;;;;2.90;1.17;;;;;;;23.55;50.12;101534.88;4955652;28;20046;-84
2022/07/12 07:08:49;;;;;;;1.17;1.00;;;;;;;23.59;49.87;101537.31;4975212;28;20101;-83
2022/07/12 07:11:16;;;;;;;2.35;1.48;;;;;;;24.01;51.91;101538.31;4967250;28;20054;-83
2022/07/12 07:13:43;;;;;;;3.63;1.27;;;;;;;24.26;49.59;101543.03;4964503;28;20047;-83
2022/07/12 07:16:20;;;;;;;2.47;1.27;;;;;;;24.19;47.04;101533.59;4967746;28;20065;-84
2022/07/12 07:18:46;;;;;;;1.67;1.00;;;;;;;24.32;47.55;101523.78;4970795;28;20047;-83
2022/07/12 07:21:13;;;;;;;1.17;1.08;;;;;;;24.52;47.01;101529.72;4971578;28;20054;-83
2022/07/12 07:23:43;;;;;;;1.55;1.13;;;;;;;24.61;46.95;101529.13;4953291;28;20220;-83
2022/07/12 07:26:34;;;;;;;2.83;1.45;;;;;;;24.73;45.65;101524.75;4976362;28;20455;-82
2022/07/12 07:33:40;;;;;;;2.45;1.13;;;;;;;24.92;44.45;101531.53;5004514;28;20031;-83
2022/07/12 07:36:22;;;;;;;1.95;1.15;;;;;;;24.65;42.57;101523.44;4980061;28;21565;-82
2022/07/12 07:39:06;;;;;;;1.65;1.42;;;;;;;24.97;44.39;101526.69;4960210;28;20043;-82
2022/07/12 07:41:54;;;;;;;1.45;1.10;;;;;;;25.06;42.13;101516.25;4945934;28;20122;-83
2022/07/12 07:49:12;;;;;;;1.88;0.82;;;;;;;25.53;40.43;101529.22;4981256;28;20062;-81
2022/07/12 07:51:39;;;;;;;1.08;0.80;;;;;;;25.68;39.97;101525.44;4916427;28;20147;-81
2022/07/12 07:54:06;;;;;;;1.45;0.80;;;;;;;25.64;39.85;101529.31;4968932;28;20042;-82
2022/07/12 07:56:33;;;;;;;1.15;1.05;;;;;;;25.50;40.50;101527.59;4953201;28;20042;-81
2022/07/12 07:59:00;;;;;;;1.65;1.02;;;;;;;25.86;41.62;101527.84;4985119;28;20050;-82
2022/07/12 08:01:42;;;;;;;1.08;0.90;;;;;;;26.10;39.35;101526.09;4960074;28;20041;-82
2022/07/12 08:04:17;;;;;;;3.13;0.80;;;;;;;26.10;39.32;101524.25;4976131;28;20045;-84
2022/07/12 08:06:45;;;;;;;1.50;0.95;;;;;;;25.93;40.10;101526.44;4948823;28;20068;-81
2022/07/12 08:09:12;;;;;;;1.08;0.90;;;;;;;25.68;39.89;101516.47;4961213;28;20042;-82
2022/07/12 08:11:41;;;;;;;3.92;1.10;;;;;;;25.96;37.99;101521.66;4953352;28;20046;-83
2022/07/12 08:14:09;;;;;;;1.17;0.80;;;;;;;26.09;39.00;101524.38;4970118;28;20114;-81
2022/07/12 08:16:36;;;;;;;1.13;1.02;;;;;;;25.64;37.67;101529.31;4980862;28;20054;-84
2022/07/12 08:19:04;;;;;;;1.10;0.90;;;;;;;25.78;37.66;101534.69;4951510;28;20131;-87
2022/07/12 08:21:32;;;;;;;1.13;0.95;;;;;;;25.49;37.60;101535.81;4963050;28;20046;-84
2022/07/12 08:23:59;;;;;;;1.42;1.10;;;;;;;25.20;39.11;101530.56;4966043;28;20042;-84
2022/07/12 08:26:26;;;;;;;1.48;0.90;;;;;;;25.30;38.65;101535.34;4958306;28;20042;-83
2022/07/12 08:28:53;;;;;;;31.00;4.25;;;;;;;25.37;40.26;101520.44;4964895;28;20054;-83
2022/07/12 08:31:20;;;;;;;1.48;1.00;;;;;;;25.31;38.57;101523.53;4994326;28;20062;-85
2022/07/12 08:33:47;;;;;;;4.18;0.90;;;;;;;25.84;38.48;101513.56;4964530;28;20074;-82
2022/07/12 08:36:14;;;;;;;37.42;4.15;;;;;;;26.43;37.08;101516.53;4969264;28;20073;-81
2022/07/12 08:38:44;;;;;;;1.10;0.80;;;;;;;26.60;35.29;101514.31;4986492;28;20057;-82
2022/07/12 08:41:12;;;;;;;1.00;0.80;;;;;;;26.89;34.61;101524.81;4974315;28;20038;-83
2022/07/12 08:43:40;;;;;;;0.80;0.80;;;;;;;26.28;34.76;101523.91;4983054;28;20091;-83
2022/07/12 08:46:20;;;;;;;1.52;0.80;;;;;;;26.24;35.49;101520.56;4970107;28;20046;-83
2022/07/12 08:48:47;;;;;;;0.80;0.80;;;;;;;26.41;35.90;101523.94;5002707;28;20046;-81
2022/07/12 08:51:18;;;;;;;0.73;0.70;;;;;;;26.79;35.92;101521.94;4969415;28;20038;-82
2022/07/12 08:53:45;;;;;;;1.83;0.90;;;;;;;27.20;35.53;101517.97;4965751;28;20062;-83
2022/07/12 08:56:32;;;;;;;0.90;0.90;;;;;;;27.54;34.31;101505.34;4966936;28;20047;-82
2022/07/12 08:59:08;;;;;;;2.30;1.45;;;;;;;27.26;33.59;101509.34;4978823;28;20066;-82
2022/07/12 09:01:40;;;;;;;2.17;1.35;;;;;;;26.93;34.70;101505.50;4975351;28;20041;-82
2022/07/12 09:04:12;;;;;;;2.03;1.00;;;;;;;26.81;33.93;101517.25;4998163;28;20042;-82
2022/07/12 09:06:39;;;;;;;2.88;1.20;;;;;;;26.95;33.75;101513.50;4966755;28;20057;-83
2022/07/12 09:09:08;;;;;;;1.00;0.88;;;;;;;27.46;32.29;101505.94;4965345;28;20046;-83
2022/07/12 09:11:36;;;;;;;1.00;0.90;;;;;;;27.34;34.83;101511.47;4963043;28;20046;-82
2022/07/12 09:14:03;;;;;;;2.38;0.82;;;;;;;27.57;34.48;101517.81;4978009;28;20042;-80
2022/07/12 09:16:30;;;;;;;1.15;1.02;;;;;;;27.83;32.24;101515.78;4967413;28;20053;-82
2022/07/12 09:19:17;;;;;;;1.42;0.90;;;;;;;27.84;32.50;101518.41;4986888;28;20046;-84
2022/07/12 09:21:52;;;;;;;2.33;0.85;;;;;;;27.98;32.54;101512.69;4990630;28;20062;-83
2022/07/12 09:24:23;;;;;;;1.10;1.00;;;;;;;28.16;32.01;101506.78;4964384;28;20066;-83
2022/07/12 09:26:53;;;;;;;135.55;20.08;;;;;;;28.04;32.06;101514.94;4985010;28;20475;-84
2022/07/12 09:29:21;;;;;;;1.58;0.82;;;;;;;27.99;32.89;101506.28;4964542;28;20042;-83
2022/07/12 09:37:21;;;;;;;5.90;1.58;;;;;;;27.31;32.42;101499.00;4971733;28;20182;-80
2022/07/12 09:39:48;;;;;;;1.23;0.80;;;;;;;27.51;32.56;101504.75;4984650;28;20051;-85
2022/07/12 09:42:15;;;;;;;2.40;1.10;;;;;;;28.07;33.26;101502.09;4972689;28;20458;-85
2022/07/12 09:44:42;;;;;;;1.27;1.08;;;;;;;28.49;32.21;101487.72;4955087;28;20607;-85
2022/07/12 09:47:13;;;;;;;1.23;0.80;;;;;;;28.78;31.48;101498.91;4981157;28;20041;-82
2022/07/12 09:49:41;;;;;;;5.65;1.10;;;;;;;29.17;31.66;101505.56;4977882;28;20054;-83
2022/07/12 09:52:13;;;;;;;4.55;1.25;;;;;;;28.48;30.30;101491.44;4978612;28;20046;-83
2022/07/12 09:54:41;;;;;;;0.90;0.90;;;;;;;28.13;30.94;101490.72;4967034;28;20072;-84
2022/07/12 09:57:30;;;;;;;1.85;1.02;;;;;;;27.86;31.38;101497.41;4989867;28;20088;-85
2022/07/12 09:59:59;;;;;;;1.83;1.00;;;;;;;28.02;30.57;101499.75;4969137;28;20380;-83
2022/07/12 10:02:26;;;;;;;1.15;0.88;;;;;;;28.23;31.41;101502.56;4972869;28;20051;-81
2022/07/12 10:04:54;;;;;;;0.93;0.80;;;;;;;28.78;30.98;101496.19;4979471;28;20039;-82
2022/07/12 10:07:21;;;;;;;1.92;1.10;;;;;;;29.14;30.49;101505.84;4966904;28;20042;-82
2022/07/12 10:09:51;;;;;;;1.25;1.00;;;;;;;28.58;28.71;101497.84;4966910;28;20188;-88
2022/07/12 10:12:21;;;;;;;2.45;1.10;;;;;;;28.17;30.29;101500.38;4982213;28;20034;-84
2022/07/12 10:15:01;;;;;;;1.60;1.08;;;;;;;28.10;30.23;101502.72;4965405;28;20041;-81
2022/07/12 10:17:31;;;;;;;1.05;0.85;;;;;;;28.72;30.89;101493.13;4978865;28;20056;-85
2022/07/12 10:20:18;;;;;;;2.22;1.02;;;;;;;27.76;31.95;101491.84;4987536;28;20125;-80
2022/07/12 10:22:45;;;;;;;1.75;0.95;;;;;;;27.42;32.38;101504.47;4980921;28;20050;-81
2022/07/12 10:25:33;;;;;;;2.20;0.95;;;;;;;27.47;32.02;101504.09;4946496;28;20061;-80
2022/07/12 10:28:01;;;;;;;1.55;1.40;;;;;;;27.83;32.30;101496.75;4980471;28;20057;-80
2022/07/12 10:30:28;;;;;;;1.23;0.90;;;;;;;27.52;32.83;101499.19;4968183;28;20454;-81
2022/07/12 10:32:58;;;;;;;1.70;1.17;;;;;;;27.33;32.84;101502.47;4968699;28;20054;-83
2022/07/12 10:35:30;;;;;;;1.48;0.90;;;;;;;27.08;33.80;101502.63;4984012;28;20050;-84
2022/07/12 10:38:12;;;;;;;1.70;1.15;;;;;;;27.34;33.91;101501.50;4967040;28;20046;-85
2022/07/12 10:40:40;;;;;;;1.02;0.98;;;;;;;27.68;31.07;101497.03;4982150;28;20066;-84
2022/07/12 10:43:07;;;;;;;1.35;1.00;;;;;;;28.12;31.17;101508.88;4963767;28;20054;-79
2022/07/12 10:45:38;;;;;;;0.88;0.80;;;;;;;27.74;31.80;101492.94;4965448;28;20331;-80
2022/07/12 10:48:12;;;;;;;2.03;0.95;;;;;;;27.38;32.28;101496.66;4974425;28;20973;-84
2022/07/12 10:51:03;;;;;;;1.40;1.10;;;;;;;27.33;31.97;101491.63;4983070;28;20058;-80
2022/07/12 10:53:33;;;;;;;1.00;0.90;;;;;;;27.67;32.16;101494.44;4991838;28;20038;-80
2022/07/12 10:56:03;;;;;;;2.13;1.10;;;;;;;28.46;31.97;101493.44;4956013;28;21000;-82
2022/07/12 10:58:32;;;;;;;1.02;0.90;;;;;;;28.22;31.23;101489.97;4992712;28;20741;-84
2022/07/12 11:01:03;;;;;;;0.98;0.90;;;;;;;28.25;32.11;101497.88;4988729;28;20046;-83
2022/07/12 11:03:32;;;;;;;1.38;0.98;;;;;;;28.82;31.81;101484.03;4958641;28;20053;-85
2022/07/12 11:06:05;;;;;;;2.05;1.25;;;;;;;28.55;30.95;101491.81;4960542;28;20046;-82
2022/07/12 11:08:47;;;;;;;2.77;1.10;;;;;;;28.85;31.03;101491.09;4965131;28;20105;-81
2022/07/12 11:11:16;;;;;;;2.85;1.00;;;;;;;28.69;31.21;101493.38;4974131;28;20113;-80
2022/07/12 11:13:50;;;;;;;11.88;2.30;;;;;;;28.56;32.00;101486.22;4977654;28;20561;-79
2022/07/12 11:16:23;;;;;;;1.60;1.07;;;;;;;28.80;32.49;101488.75;4965675;28;20060;-80
2022/07/12 11:19:11;;;;;;;1.25;1.15;;;;;;;28.66;31.55;101501.78;4964416;28;20050;-79
2022/07/12 11:21:44;;;;;;;1.55;1.00;;;;;;;27.80;33.31;101508.75;4974656;28;20038;-79
2022/07/12 11:24:19;;;;;;;1.83;1.00;;;;;;;27.81;33.83;101504.19;4960156;28;20049;-80
2022/07/12 11:26:47;;;;;;;3.00;0.90;;;;;;;27.84;33.96;101499.38;4978603;28;20046;-80
2022/07/12 11:29:15;;;;;;;3.72;1.25;;;;;;;27.74;33.78;101488.38;4977709;28;20050;-80
2022/07/12 11:31:42;;;;;;;1.42;1.13;;;;;;;27.28;34.72;101482.97;4977942;28;20530;-80
2022/07/12 11:34:26;;;;;;;1.15;0.82;;;;;;;27.05;34.62;101479.31;4980522;28;20098;-79
2022/07/12 11:36:53;;;;;;;1.65;1.27;;;;;;;26.99;35.05;101487.00;4981014;28;20066;-80
2022/07/12 11:39:39;;;;;;;1.73;1.05;;;;;;;26.51;35.78;101497.88;4990778;28;20022;-80
2022/07/12 11:42:09;;;;;;;2.67;1.00;;;;;;;26.60;36.30;101497.19;4979199;28;20046;-80
2022/07/12 11:44:46;;;;;;;3.83;1.02;;;;;;;26.38;36.18;101495.19;4975952;28;20073;-80
2022/07/12 11:47:14;;;;;;;1.33;1.00;;;;;;;26.45;36.40;101490.19;4998499;28;20043;-79
2022/07/12 11:49:59;;;;;;;1.33;1.02;;;;;;;26.89;36.28;101487.72;4956948;28;20055;-80
2022/07/12 11:52:26;;;;;;;2.30;1.27;;;;;;;27.21;34.48;101482.56;4990355;28;20110;-81
2022/07/12 11:54:53;;;;;;;1.40;0.90;;;;;;;27.25;33.22;101472.38;4988277;28;20061;-80